Terminal Aerodrome Forecast
Issued by NWS

Home | Current Version | Previous Version | Graphics & Text | Print | Product List | Glossary On
Versions: 1 2 3 4 5 6 7 8 9 10 11 12 13 14 15 16 17
000
FTUS43 KGRB 291400 AAA
TAFATW
TAF AMD
KATW 291422Z 2914/3012 19019G28KT P6SM SCT080 OVC250
     FM291500 20024G33KT 5SM -RAPL SCT020 OVC045
      TEMPO 2915/2917 3SM -SN SCT007 OVC035
     FM291700 20021G29KT P6SM -SHRA BKN030
     FM292100 23015G24KT P6SM BKN040
     FM300100 28012KT P6SM SCT050=

USA.gov is the U.S. government's official web portal to all federal, state and local government web resources and services.